Time,TemperatureF,DewpointF,PressureIn,WindDirection,WindDirectionDegrees,WindSpeedMPH,WindSpeedGustMPH,Humidity,HourlyPrecipIn,Conditions,Clouds,dailyrainin,SoftwareType,DateUTC
2013-01-15 00:02:00,43.7,27.2,30.07,NNE,22,5.8,5.8,52,0.00,OVC,,0.00,WeatherDisplay:10.37,2013-01-15 06:02:00,
2013-01-15 00:07:00,43.5,27.0,30.07,NNE,22,4.7,4.7,52,0.00,OVC,,0.00,WeatherDisplay:10.37,2013-01-15 06:07:00,
2013-01-15 00:12:00,43.5,27.0,30.10,ENE,68,4.6,4.6,52,0.00,OVC,,0.00,WeatherDisplay:10.37,2013-01-15 06:12:00,
2013-01-15 00:17:00,43.5,27.0,30.10,ENE,68,5.4,5.4,52,0.00,OVC,,0.00,WeatherDisplay:10.37,2013-01-15 06:17:00,
2013-01-15 00:22:00,43.5,27.0,30.10,NE,45,5.8,5.8,52,0.00,OVC,,0.00,WeatherDisplay:10.37,2013-01-15 06:22:00,
2013-01-15 00:27:00,43.3,26.9,30.10,NNE,22,3.5,3.5,52,0.00,OVC,,0.00,WeatherDisplay:10.37,2013-01-15 06:27:00,
2013-01-15 00:32:00,43.0,26.5,30.10,North,0,4.6,4.6,52,0.00,OVC,,0.00,WeatherDisplay:10.37,2013-01-15 06:32:00,
2013-01-15 00:37:00,42.8,26.4,30.10,NNW,338,3.5,3.5,52,0.00,OVC,,0.00,WeatherDisplay:10.37,2013-01-15 06:37:00,
2013-01-15 00:42:00,42.4,27.4,30.10,NNW,338,4.6,4.6,55,0.00,OVC,,0.00,WeatherDisplay:10.37,2013-01-15 06:42:00,
2013-01-15 00:47:00,42.3,27.2,30.10,NNW,338,3.5,3.5,55,0.00,OVC,,0.00,WeatherDisplay:10.37,2013-01-15 06:47:00,
2013-01-15 00:52:00,42.1,27.1,30.10,NNW,338,3.5,3.8,55,0.00,OVC,,0.00,WeatherDisplay:10.37,2013-01-15 06:52:00,
2013-01-15 00:57:00,41.9,26.9,30.10,NE,45,3.5,3.5,55,0.00,OVC,,0.00,WeatherDisplay:10.37,2013-01-15 06:57:00,
2013-01-15 01:02:00,41.9,26.9,30.10,NNW,338,2.3,2.3,55,0.00,OVC,,0.00,WeatherDisplay:10.37,2013-01-15 07:02:00,
2013-01-15 01:07:00,41.7,26.7,30.10,NNW,338,2.3,2.3,55,0.00,OVC,,0.00,WeatherDisplay:10.37,2013-01-15 07:07:00,
2013-01-15 01:12:00,41.7,26.7,30.10,NE,45,3.1,3.1,55,0.00,OVC,,0.00,WeatherDisplay:10.37,2013-01-15 07:12:00,
2013-01-15 01:17:00,41.5,26.6,30.10,NNW,338,2.4,2.4,55,0.00,OVC,,0.00,WeatherDisplay:10.37,2013-01-15 07:17:00,
2013-01-15 01:22:00,41.4,26.4,30.10,NNE,22,3.5,3.5,55,0.00,OVC,,0.00,WeatherDisplay:10.37,2013-01-15 07:22:00,
2013-01-15 01:27:00,41.2,26.2,30.10,NNW,338,2.3,2.3,55,0.00,OVC,,0.00,WeatherDisplay:10.37,2013-01-15 07:27:00,
2013-01-15 01:33:00,41.2,28.3,30.10,NNW,338,3.5,3.5,60,0.00,OVC,,0.00,WeatherDisplay:10.37,2013-01-15 07:33:00,
2013-01-15 01:38:00,41.0,28.2,30.10,NW,315,3.5,3.5,60,0.00,OVC,,0.00,WeatherDisplay:10.37,2013-01-15 07:38:00,
2013-01-15 01:43:00,40.6,28.6,30.10,NW,315,4.6,4.6,62,0.00,OVC,,0.00,WeatherDisplay:10.37,2013-01-15 07:43:00,
2013-01-15 01:48:00,40.5,99.9,30.10,NW,315,2.3,2.3,117,0.00,OVC,,0.00,WeatherDisplay:10.37,2013-01-15 07:48:00,
2013-01-15 01:53:00,40.3,28.3,30.10,NW,315,4.6,4.6,62,0.00,OVC,,0.00,WeatherDisplay:10.37,2013-01-15 07:53:00,
2013-01-15 01:58:00,40.1,28.1,30.10,NW,315,3.5,3.5,62,0.00,OVC,,0.00,WeatherDisplay:10.37,2013-01-15 07:58:00,
2013-01-15 02:03:00,40.1,30.0,30.10,WNW,292,2.6,2.6,67,0.00,-DZ,,0.00,WeatherDisplay:10.37,2013-01-15 08:03:00,
2013-01-15 02:08:00,40.1,30.0,30.10,NW,315,4.6,4.6,67,0.00,-DZ,,0.00,WeatherDisplay:10.37,2013-01-15 08:08:00,
2013-01-15 02:13:00,39.9,29.8,30.10,NW,315,4.6,4.6,67,0.00,-DZ,,0.00,WeatherDisplay:10.37,2013-01-15 08:13:00,
2013-01-15 02:18:00,39.9,29.8,30.10,NW,315,2.3,2.3,67,0.00,-DZ,,0.00,WeatherDisplay:10.37,2013-01-15 08:18:00,
2013-01-15 02:23:00,39.9,32.3,30.10,NW,315,3.5,3.5,74,0.00,OVC,,0.00,WeatherDisplay:10.37,2013-01-15 08:23:00,
2013-01-15 02:28:00,39.9,32.3,30.10,NNW,338,3.5,3.5,74,0.00,OVC,,0.00,WeatherDisplay:10.37,2013-01-15 08:28:00,
2013-01-15 02:33:00,39.9,32.3,30.10,WNW,292,3.5,3.5,74,0.00,OVC,,0.00,WeatherDisplay:10.37,2013-01-15 08:33:00,
2013-01-15 02:38:00,39.9,32.3,30.10,NNW,338,3.5,3.5,74,0.00,OVC,,0.00,WeatherDisplay:10.37,2013-01-15 08:38:00,
2013-01-15 02:43:00,39.7,32.1,30.13,NW,315,6.9,6.9,74,0.00,OVC,,0.00,WeatherDisplay:10.37,2013-01-15 08:43:00,
2013-01-15 02:48:00,39.7,32.1,30.13,NW,315,3.5,3.5,74,0.00,OVC,,0.00,WeatherDisplay:10.37,2013-01-15 08:48:00,
2013-01-15 02:53:00,39.7,32.1,30.13,WNW,292,2.6,2.6,74,0.00,OVC,,0.00,WeatherDisplay:10.37,2013-01-15 08:53:00,
2013-01-15 02:58:00,39.6,32.0,30.10,NNW,338,5.8,5.8,74,0.00,OVC,,0.00,WeatherDisplay:10.37,2013-01-15 08:58:00,
2013-01-15 03:03:00,39.4,31.8,30.10,North,0,5.8,5.8,74,0.00,OVC,,0.00,WeatherDisplay:10.37,2013-01-15 09:03:00,
2013-01-15 03:08:00,39.4,33.1,30.10,NW,315,3.5,3.5,78,0.00,OVC,,0.00,WeatherDisplay:10.37,2013-01-15 09:08:00,
2013-01-15 03:13:00,39.4,33.1,30.10,North,0,6.0,6.0,78,0.00,OVC,,0.00,WeatherDisplay:10.37,2013-01-15 09:13:00,
2013-01-15 03:18:00,39.2,32.9,30.10,NNW,338,5.8,5.8,78,0.00,OVC,,0.00,WeatherDisplay:10.37,2013-01-15 09:18:00,
2013-01-15 03:23:00,39.2,32.9,30.10,NW,315,6.9,6.9,78,0.00,-DZ,,0.00,WeatherDisplay:10.37,2013-01-15 09:23:00,
2013-01-15 03:28:00,39.2,32.9,30.10,NW,315,4.6,4.6,78,0.00,-DZ,,0.00,WeatherDisplay:10.37,2013-01-15 09:28:00,
2013-01-15 03:33:00,39.0,32.7,30.10,NW,315,6.9,6.9,78,0.00,-DZ,,0.00,WeatherDisplay:10.37,2013-01-15 09:33:00,
2013-01-15 03:38:00,38.8,32.6,30.10,NNE,22,4.6,4.6,78,0.00,-DZ,,0.00,WeatherDisplay:10.37,2013-01-15 09:38:00,
2013-01-15 03:43:00,38.8,32.6,30.10,NE,45,5.8,5.8,78,0.00,OVC,,0.00,WeatherDisplay:10.37,2013-01-15 09:43:00,
2013-01-15 03:48:00,38.8,32.6,30.10,NW,315,4.6,4.6,78,0.00,OVC,,0.00,WeatherDisplay:10.37,2013-01-15 09:48:00,
2013-01-15 03:53:00,38.8,32.6,30.10,NW,315,4.6,4.6,78,0.00,OVC,,0.00,WeatherDisplay:10.37,2013-01-15 09:53:00,
2013-01-15 03:58:00,38.8,32.6,30.10,NNW,338,5.8,5.8,78,0.00,OVC,,0.00,WeatherDisplay:10.37,2013-01-15 09:58:00,
2013-01-15 04:03:00,38.8,32.6,30.10,NW,315,4.9,4.9,78,0.00,OVC,,0.00,WeatherDisplay:10.37,2013-01-15 10:03:00,
2013-01-15 04:08:00,38.8,32.6,30.10,ENE,68,5.8,5.8,78,0.00,OVC,,0.00,WeatherDisplay:10.37,2013-01-15 10:08:00,
2013-01-15 04:13:00,38.8,32.6,30.10,North,0,5.9,5.9,78,0.00,OVC,,0.00,WeatherDisplay:10.37,2013-01-15 10:13:00,
2013-01-15 04:18:00,38.8,32.6,30.10,NNW,338,3.5,4.0,78,0.00,OVC,,0.00,WeatherDisplay:10.37,2013-01-15 10:18:00,
2013-01-15 04:23:00,38.8,32.6,30.10,NNW,338,5.6,5.6,78,0.00,OVC,,0.00,WeatherDisplay:10.37,2013-01-15 10:23:00,
2013-01-15 04:28:00,38.7,32.4,30.10,North,0,4.6,4.6,78,0.00,OVC,,0.00,WeatherDisplay:10.37,2013-01-15 10:28:00,
2013-01-15 04:33:00,38.7,32.4,30.10,NW,315,6.9,6.9,78,0.00,OVC,,0.00,WeatherDisplay:10.37,2013-01-15 10:33:00,
2013-01-15 04:38:00,38.7,32.4,30.10,NW,315,4.6,4.6,78,0.00,OVC,,0.00,WeatherDisplay:10.37,2013-01-15 10:38:00,
2013-01-15 04:43:00,38.7,32.4,30.10,NNW,338,4.6,4.6,78,0.00,OVC,,0.00,WeatherDisplay:10.37,2013-01-15 10:43:00,
2013-01-15 04:48:00,38.7,32.4,30.10,NW,315,5.8,5.8,78,0.00,OVC,,0.00,WeatherDisplay:10.37,2013-01-15 10:48:00,
2013-01-15 04:53:00,38.7,33.0,30.10,NNW,338,2.3,2.6,80,0.00,OVC,,0.00,WeatherDisplay:10.37,2013-01-15 10:53:00,
2013-01-15 04:58:00,38.7,33.0,30.13,NNW,338,5.8,5.8,80,0.00,OVC,,0.00,WeatherDisplay:10.37,2013-01-15 10:58:00,
2013-01-15 05:03:00,38.7,32.4,30.13,NNW,338,5.8,5.8,78,0.00,OVC,,0.00,WeatherDisplay:10.37,2013-01-15 11:03:00,
2013-01-15 05:08:00,38.7,32.4,30.13,North,0,6.9,6.9,78,0.00,OVC,,0.00,WeatherDisplay:10.37,2013-01-15 11:08:00,
2013-01-15 05:13:00,38.7,32.4,30.10,NNW,338,3.5,3.5,78,0.00,OVC,,0.00,WeatherDisplay:10.37,2013-01-15 11:13:00,
2013-01-15 05:18:00,38.7,32.4,30.10,NNW,338,4.6,4.6,78,0.00,OVC,,0.00,WeatherDisplay:10.37,2013-01-15 11:18:00,
2013-01-15 05:23:00,38.7,32.4,30.10,NW,315,5.8,5.8,78,0.00,OVC,,0.00,WeatherDisplay:10.37,2013-01-15 11:23:00,
2013-01-15 05:28:00,38.7,32.4,30.10,NNW,338,5.8,5.8,78,0.00,OVC,,0.00,WeatherDisplay:10.37,2013-01-15 11:28:00,
2013-01-15 05:33:00,38.7,32.4,30.10,NW,315,3.5,3.5,78,0.00,OVC,,0.00,WeatherDisplay:10.37,2013-01-15 11:33:00,
2013-01-15 05:38:00,38.7,32.4,30.10,NNE,22,5.8,5.8,78,0.00,OVC,,0.00,WeatherDisplay:10.37,2013-01-15 11:38:00,
2013-01-15 05:43:00,38.7,32.4,30.13,NW,315,6.9,6.9,78,0.00,OVC,,0.00,WeatherDisplay:10.37,2013-01-15 11:43:00,
2013-01-15 05:48:00,38.7,31.1,30.13,North,0,6.9,6.9,74,0.00,OVC,,0.00,WeatherDisplay:10.37,2013-01-15 11:48:00,
2013-01-15 05:53:00,38.5,30.9,30.13,North,0,9.2,9.2,74,0.00,OVC,,0.00,WeatherDisplay:10.37,2013-01-15 11:53:00,
2013-01-15 05:58:00,38.5,30.9,30.13,NNE,22,6.9,6.9,74,0.00,OVC,,0.00,WeatherDisplay:10.37,2013-01-15 11:58:00,
2013-01-15 06:03:00,38.5,30.9,30.13,NNW,338,5.4,5.4,74,0.00,OVC,,0.00,WeatherDisplay:10.37,2013-01-15 12:03:00,
2013-01-15 06:08:00,38.5,30.9,30.13,NNW,338,3.5,3.5,74,0.00,OVC,,0.00,WeatherDisplay:10.37,2013-01-15 12:08:00,
2013-01-15 06:13:00,38.5,30.9,30.13,NNE,22,5.8,5.8,74,0.00,OVC,,0.00,WeatherDisplay:10.37,2013-01-15 12:13:00,
2013-01-15 06:18:00,38.5,30.9,30.13,NW,315,5.8,5.8,74,0.00,OVC,,0.00,WeatherDisplay:10.37,2013-01-15 12:18:00,
2013-01-15 06:23:00,38.5,30.9,30.13,NNE,22,5.8,5.8,74,0.00,OVC,,0.00,WeatherDisplay:10.37,2013-01-15 12:23:00,
2013-01-15 06:28:00,38.7,31.1,30.13,NNW,338,5.8,5.8,74,0.00,OVC,,0.00,WeatherDisplay:10.37,2013-01-15 12:28:00,
2013-01-15 06:33:00,38.5,30.9,30.13,NNW,338,4.3,4.3,74,0.00,OVC,,0.00,WeatherDisplay:10.37,2013-01-15 12:33:00,
2013-01-15 06:38:00,38.5,30.9,30.13,NW,315,4.6,4.6,74,0.00,OVC,,0.00,WeatherDisplay:10.37,2013-01-15 12:38:00,
2013-01-15 06:43:00,38.5,30.9,30.13,NE,45,5.8,5.8,74,0.00,OVC,,0.00,WeatherDisplay:10.37,2013-01-15 12:43:00,
2013-01-15 06:48:00,38.3,30.7,30.13,NNW,338,6.9,6.9,74,0.00,OVC,,0.00,WeatherDisplay:10.37,2013-01-15 12:48:00,
2013-01-15 06:53:00,38.3,30.7,30.13,NNW,338,4.6,4.6,74,0.00,OVC,,0.00,WeatherDisplay:10.37,2013-01-15 12:53:00,
2013-01-15 06:58:00,38.3,28.3,30.13,NW,315,5.8,5.8,67,0.00,OVC,,0.00,WeatherDisplay:10.37,2013-01-15 12:58:00,
2013-01-15 07:03:00,38.3,28.3,30.13,North,0,5.9,5.9,67,0.00,OVC,,0.00,WeatherDisplay:10.37,2013-01-15 13:03:00,
2013-01-15 07:08:00,38.3,28.3,30.13,North,0,5.8,5.8,67,0.00,OVC,,0.00,WeatherDisplay:10.37,2013-01-15 13:08:00,
2013-01-15 07:13:00,38.1,28.1,30.13,NNW,338,8.1,8.1,67,0.00,OVC,,0.00,WeatherDisplay:10.37,2013-01-15 13:13:00,
2013-01-15 07:18:00,38.1,28.1,30.13,NW,315,9.2,9.2,67,0.00,OVC,,0.00,WeatherDisplay:10.37,2013-01-15 13:18:00,
2013-01-15 07:23:00,38.3,28.3,30.13,North,0,4.6,4.6,67,0.00,OVC,,0.00,WeatherDisplay:10.37,2013-01-15 13:23:00,
2013-01-15 07:28:00,38.3,28.3,30.13,NW,315,4.6,4.6,67,0.00,OVC,,0.00,WeatherDisplay:10.37,2013-01-15 13:28:00,
2013-01-15 07:33:00,38.5,28.5,30.13,NW,315,6.9,6.9,67,0.00,OVC,,0.00,WeatherDisplay:10.37,2013-01-15 13:33:00,
2013-01-15 07:38:00,38.3,28.3,30.13,NW,315,5.8,5.8,67,0.00,OVC,,0.00,WeatherDisplay:10.37,2013-01-15 13:38:00,
2013-01-15 07:43:00,38.3,28.3,30.16,NW,315,5.8,5.8,67,0.00,OVC,,0.00,WeatherDisplay:10.37,2013-01-15 13:43:00,
2013-01-15 07:48:00,38.5,28.5,30.16,NNW,338,5.8,5.8,67,0.00,OVC,,0.00,WeatherDisplay:10.37,2013-01-15 13:48:00,
2013-01-15 07:53:00,38.5,28.5,30.16,NW,315,5.8,5.8,67,0.00,OVC,,0.00,WeatherDisplay:10.37,2013-01-15 13:53:00,
2013-01-15 07:58:00,38.5,28.5,30.16,NNW,338,10.4,10.4,67,0.00,OVC,,0.00,WeatherDisplay:10.37,2013-01-15 13:58:00,
2013-01-15 08:03:00,38.5,28.5,30.16,NW,315,4.6,4.6,67,0.00,OVC,,0.00,WeatherDisplay:10.37,2013-01-15 14:03:00,
2013-01-15 08:08:00,38.5,28.5,30.16,NNW,338,4.6,4.9,67,0.00,OVC,,0.00,WeatherDisplay:10.37,2013-01-15 14:08:00,
2013-01-15 08:13:00,38.5,26.6,30.16,NW,315,4.6,5.6,62,0.00,OVC,,0.00,WeatherDisplay:10.37,2013-01-15 14:13:00,
2013-01-15 08:18:00,38.5,28.5,30.16,North,0,6.9,6.9,67,0.00,OVC,,0.00,WeatherDisplay:10.37,2013-01-15 14:18:00,
2013-01-15 08:23:00,38.7,26.8,30.16,North,0,5.8,5.8,62,0.00,OVC,,0.00,WeatherDisplay:10.37,2013-01-15 14:23:00,
2013-01-15 08:28:00,38.7,26.8,30.16,North,0,8.1,8.1,62,0.00,OVC,,0.00,WeatherDisplay:10.37,2013-01-15 14:28:00,
2013-01-15 08:33:00,38.7,26.8,30.16,North,0,9.2,9.2,62,0.00,OVC,,0.00,WeatherDisplay:10.37,2013-01-15 14:33:00,
2013-01-15 08:38:00,38.7,26.8,30.16,NNW,338,3.5,3.5,62,0.00,OVC,,0.00,WeatherDisplay:10.37,2013-01-15 14:38:00,
2013-01-15 08:43:00,38.7,26.8,30.16,NNW,338,6.4,6.4,62,0.00,OVC,,0.00,WeatherDisplay:10.37,2013-01-15 14:43:00,
2013-01-15 08:49:00,38.8,26.9,30.16,NNE,22,5.8,5.8,62,0.00,OVC,,0.00,WeatherDisplay:10.37,2013-01-15 14:49:00,
2013-01-15 08:54:00,38.8,26.9,30.16,NNW,338,4.6,4.6,62,0.00,OVC,,0.00,WeatherDisplay:10.37,2013-01-15 14:54:00,
2013-01-15 08:59:00,38.8,26.9,30.16,North,0,4.6,4.6,62,0.00,OVC,,0.00,WeatherDisplay:10.37,2013-01-15 14:59:00,
2013-01-15 09:04:00,39.0,27.1,30.16,NNW,338,3.5,4.0,62,0.00,OVC,,0.00,WeatherDisplay:10.37,2013-01-15 15:04:00,
2013-01-15 09:09:00,39.2,27.3,30.16,North,0,5.8,5.8,62,0.00,OVC,,0.00,WeatherDisplay:10.37,2013-01-15 15:09:00,
2013-01-15 09:14:00,39.2,99.9,30.16,NNW,338,4.6,4.6,117,0.00,OVC,,0.00,WeatherDisplay:10.37,2013-01-15 15:14:00,
2013-01-15 09:19:00,39.2,27.3,30.16,North,0,4.6,4.6,62,0.00,OVC,,0.00,WeatherDisplay:10.37,2013-01-15 15:19:00,
2013-01-15 09:24:00,39.2,27.3,30.16,NW,315,8.1,8.1,62,0.00,OVC,,0.00,WeatherDisplay:10.37,2013-01-15 15:24:00,
2013-01-15 09:29:00,39.4,27.4,30.13,North,0,6.9,6.9,62,0.00,OVC,,0.00,WeatherDisplay:10.37,2013-01-15 15:29:00,
2013-01-15 09:34:00,39.4,24.5,30.13,NNE,22,5.8,5.8,55,0.00,OVC,,0.00,WeatherDisplay:10.37,2013-01-15 15:34:00,
2013-01-15 09:39:00,39.7,24.9,30.13,NNW,338,8.1,8.1,55,0.00,OVC,,0.00,WeatherDisplay:10.37,2013-01-15 15:39:00,
2013-01-15 09:44:00,39.6,24.7,30.13,NW,315,5.8,5.8,55,0.00,OVC,,0.00,WeatherDisplay:10.37,2013-01-15 15:44:00,
2013-01-15 09:49:00,39.7,24.9,30.13,North,0,5.8,5.8,55,0.00,OVC,,0.00,WeatherDisplay:10.37,2013-01-15 15:49:00,
2013-01-15 09:54:00,39.9,25.0,30.13,North,0,8.1,8.1,55,0.00,OVC,,0.00,WeatherDisplay:10.37,2013-01-15 15:54:00,
2013-01-15 09:59:00,39.9,25.0,30.16,NNW,338,7.6,7.6,55,0.00,OVC,,0.00,WeatherDisplay:10.37,2013-01-15 15:59:00,
2013-01-15 10:04:00,40.1,25.2,30.16,NNW,338,5.8,5.8,55,0.00,OVC,,0.00,WeatherDisplay:10.37,2013-01-15 16:04:00,
2013-01-15 10:09:00,40.3,25.4,30.16,NW,315,8.1,8.1,55,0.00,OVC,,0.00,WeatherDisplay:10.37,2013-01-15 16:09:00,
2013-01-15 10:14:00,40.5,25.5,30.13,NNW,338,6.9,6.9,55,0.00,OVC,,0.00,WeatherDisplay:10.37,2013-01-15 16:14:00,
2013-01-15 10:19:00,40.3,25.4,30.13,NNE,22,6.4,6.4,55,0.00,OVC,,0.00,WeatherDisplay:10.37,2013-01-15 16:19:00,
2013-01-15 10:24:00,40.5,25.5,30.13,NW,315,5.8,5.8,55,0.00,OVC,,0.00,WeatherDisplay:10.37,2013-01-15 16:24:00,
2013-01-15 10:29:00,40.5,25.5,30.16,NNW,338,6.9,6.9,55,0.00,OVC,,0.00,WeatherDisplay:10.37,2013-01-15 16:29:00,
2013-01-15 10:34:00,40.6,25.7,30.16,NNW,338,4.6,4.6,55,0.00,OVC,,0.00,WeatherDisplay:10.37,2013-01-15 16:34:00,
2013-01-15 10:39:00,40.6,25.7,30.16,NW,315,6.9,6.9,55,0.00,OVC,,0.00,WeatherDisplay:10.37,2013-01-15 16:39:00,
2013-01-15 10:44:00,40.6,25.7,30.16,NW,315,6.9,6.9,55,0.00,OVC,,0.00,WeatherDisplay:10.37,2013-01-15 16:44:00,
2013-01-15 10:49:00,40.8,25.9,30.16,NW,315,4.6,4.6,55,0.00,OVC,,0.00,WeatherDisplay:10.37,2013-01-15 16:49:00,
2013-01-15 10:54:00,40.8,25.9,30.16,NW,315,4.6,4.6,55,0.00,OVC,,0.00,WeatherDisplay:10.37,2013-01-15 16:54:00,
2013-01-15 10:59:00,40.8,25.9,30.16,NW,315,8.1,8.1,55,0.00,OVC,,0.00,WeatherDisplay:10.37,2013-01-15 16:59:00,
2013-01-15 11:04:00,41.0,26.1,30.16,NNW,338,5.8,5.8,55,0.00,OVC,,0.00,WeatherDisplay:10.37,2013-01-15 17:04:00,
2013-01-15 11:09:00,41.0,26.1,30.16,NNW,338,9.2,9.2,55,0.00,OVC,,0.00,WeatherDisplay:10.37,2013-01-15 17:09:00,
2013-01-15 11:14:00,41.2,26.2,30.16,NW,315,10.4,10.4,55,0.00,OVC,,0.00,WeatherDisplay:10.37,2013-01-15 17:14:00,
2013-01-15 11:19:00,41.2,26.2,30.16,North,0,6.9,6.9,55,0.00,OVC,,0.00,WeatherDisplay:10.37,2013-01-15 17:19:00,
2013-01-15 11:24:00,41.5,26.6,30.16,NW,315,5.8,5.8,55,0.00,OVC,,0.00,WeatherDisplay:10.37,2013-01-15 17:24:00,
2013-01-15 11:29:00,41.5,26.6,30.16,NE,45,5.8,5.8,55,0.00,OVC,,0.00,WeatherDisplay:10.37,2013-01-15 17:29:00,
2013-01-15 11:34:00,41.5,26.6,30.16,North,0,4.6,4.6,55,0.00,OVC,,0.00,WeatherDisplay:10.37,2013-01-15 17:34:00,
2013-01-15 11:39:00,41.7,26.7,30.16,North,0,5.8,5.8,55,0.00,OVC,,0.00,WeatherDisplay:10.37,2013-01-15 17:39:00,
2013-01-15 11:44:00,41.7,26.7,30.13,NNW,338,6.9,6.9,55,0.00,OVC,,0.00,WeatherDisplay:10.37,2013-01-15 17:44:00,
2013-01-15 11:49:00,41.7,26.7,30.13,NW,315,6.9,6.9,55,0.00,OVC,,0.00,WeatherDisplay:10.37,2013-01-15 17:49:00,
2013-01-15 11:54:00,41.9,26.9,30.13,North,0,4.6,4.6,55,0.00,OVC,,0.00,WeatherDisplay:10.37,2013-01-15 17:54:00,
2013-01-15 11:59:00,41.7,26.7,30.16,WNW,292,5.8,5.8,55,0.00,OVC,,0.00,WeatherDisplay:10.37,2013-01-15 17:59:00,
2013-01-15 12:04:00,42.1,27.1,30.16,WNW,292,5.8,5.8,55,0.00,OVC,,0.00,WeatherDisplay:10.37,2013-01-15 18:04:00,
2013-01-15 12:09:00,42.1,27.1,30.16,NW,315,5.8,5.8,55,0.00,OVC,,0.00,WeatherDisplay:10.37,2013-01-15 18:09:00,
2013-01-15 12:14:00,41.9,26.9,30.16,NNW,338,5.8,5.8,55,0.00,OVC,,0.00,WeatherDisplay:10.37,2013-01-15 18:14:00,
2013-01-15 12:19:00,41.7,26.7,30.16,NW,315,3.5,3.5,55,0.00,OVC,,0.00,WeatherDisplay:10.37,2013-01-15 18:19:00,
2013-01-15 12:24:00,42.1,27.1,30.16,North,0,2.3,3.1,55,0.00,OVC,,0.00,WeatherDisplay:10.37,2013-01-15 18:24:00,
2013-01-15 12:29:00,41.9,26.9,30.13,North,0,4.6,4.6,55,0.00,OVC,,0.00,WeatherDisplay:10.37,2013-01-15 18:29:00,
2013-01-15 12:34:00,41.7,26.7,30.13,WNW,292,9.2,9.2,55,0.00,OVC,,0.00,WeatherDisplay:10.37,2013-01-15 18:34:00,
2013-01-15 12:39:00,41.5,26.6,30.13,NW,315,4.6,4.6,55,0.00,OVC,,0.00,WeatherDisplay:10.37,2013-01-15 18:39:00,
2013-01-15 12:44:00,41.5,26.6,30.13,WNW,292,5.8,5.8,55,0.00,OVC,,0.00,WeatherDisplay:10.37,2013-01-15 18:44:00,
2013-01-15 12:49:00,41.5,26.6,30.13,NW,315,11.5,11.5,55,0.00,OVC,,0.00,WeatherDisplay:10.37,2013-01-15 18:49:00,
2013-01-15 12:54:00,41.5,26.6,30.13,NW,315,8.1,8.1,55,0.00,OVC,,0.00,WeatherDisplay:10.37,2013-01-15 18:54:00,
2013-01-15 12:59:00,41.7,26.7,30.13,NE,45,5.8,5.8,55,0.00,OVC,,0.00,WeatherDisplay:10.37,2013-01-15 18:59:00,
2013-01-15 13:04:00,41.7,26.7,30.13,NNW,338,4.6,4.6,55,0.00,OVC,,0.00,WeatherDisplay:10.37,2013-01-15 19:04:00,
2013-01-15 13:09:00,41.9,26.9,30.13,NW,315,5.8,5.8,55,0.00,OVC,,0.00,WeatherDisplay:10.37,2013-01-15 19:09:00,
2013-01-15 13:14:00,41.9,26.9,30.13,NW,315,4.6,4.6,55,0.00,OVC,,0.00,WeatherDisplay:10.37,2013-01-15 19:14:00,
2013-01-15 13:19:00,41.9,26.9,30.13,West,270,6.0,6.0,55,0.00,OVC,,0.00,WeatherDisplay:10.37,2013-01-15 19:19:00,
2013-01-15 13:24:00,42.1,27.1,30.13,NNW,338,9.2,9.2,55,0.00,OVC,,0.00,WeatherDisplay:10.37,2013-01-15 19:24:00,
2013-01-15 13:29:00,42.1,27.1,30.13,NW,315,8.1,8.1,55,0.00,OVC,,0.00,WeatherDisplay:10.37,2013-01-15 19:29:00,
2013-01-15 13:34:00,42.3,27.2,30.13,NNW,338,8.1,8.1,55,0.00,OVC,,0.00,WeatherDisplay:10.37,2013-01-15 19:34:00,
2013-01-15 13:39:00,42.3,27.2,30.13,NNW,338,10.4,10.4,55,0.00,OVC,,0.00,WeatherDisplay:10.37,2013-01-15 19:39:00,
2013-01-15 13:44:00,42.4,27.4,30.13,NNW,338,9.2,9.2,55,0.00,OVC,,0.00,WeatherDisplay:10.37,2013-01-15 19:44:00,
2013-01-15 13:49:00,43.0,26.5,30.13,North,0,5.8,5.8,52,0.00,OVC,,0.00,WeatherDisplay:10.37,2013-01-15 19:49:00,
2013-01-15 13:54:00,43.3,26.9,30.13,North,0,10.0,10.0,52,0.00,OVC,,0.00,WeatherDisplay:10.37,2013-01-15 19:54:00,
2013-01-15 13:59:00,43.5,27.0,30.13,NNW,338,9.2,9.2,52,0.00,OVC,,0.00,WeatherDisplay:10.37,2013-01-15 19:59:00,
2013-01-15 14:04:00,43.7,27.2,30.13,NW,315,8.1,8.1,52,0.00,OVC,,0.00,WeatherDisplay:10.37,2013-01-15 20:04:00,
2013-01-15 14:09:00,43.7,27.2,30.13,WNW,292,6.9,6.9,52,0.00,OVC,,0.00,WeatherDisplay:10.37,2013-01-15 20:09:00,
2013-01-15 14:14:00,43.5,27.0,30.10,North,0,10.4,10.4,52,0.00,OVC,,0.00,WeatherDisplay:10.37,2013-01-15 20:14:00,
2013-01-15 14:19:00,43.5,27.0,30.10,North,0,8.1,8.1,52,0.00,OVC,,0.00,WeatherDisplay:10.37,2013-01-15 20:19:00,
2013-01-15 14:24:00,44.1,27.5,30.10,North,0,5.8,5.8,52,0.00,OVC,,0.00,WeatherDisplay:10.37,2013-01-15 20:24:00,
2013-01-15 14:30:00,43.7,27.2,30.10,WNW,292,4.6,5.9,52,0.00,OVC,,0.00,WeatherDisplay:10.37,2013-01-15 20:30:00,
2013-01-15 14:35:00,43.5,27.0,30.10,NNW,338,4.6,5.6,52,0.00,OVC,,0.00,WeatherDisplay:10.37,2013-01-15 20:35:00,
2013-01-15 14:40:00,43.7,27.2,30.10,NW,315,8.1,8.1,52,0.00,OVC,,0.00,WeatherDisplay:10.37,2013-01-15 20:40:00,
2013-01-15 14:45:00,43.5,27.0,30.10,NW,315,12.7,12.7,52,0.00,OVC,,0.00,WeatherDisplay:10.37,2013-01-15 20:45:00,
2013-01-15 14:50:00,43.3,26.9,30.10,WNW,292,9.2,9.2,52,0.00,OVC,,0.00,WeatherDisplay:10.37,2013-01-15 20:50:00,
2013-01-15 14:55:00,43.0,26.5,30.10,North,0,13.2,13.2,52,0.00,OVC,,0.00,WeatherDisplay:10.37,2013-01-15 20:55:00,
2013-01-15 15:00:00,42.8,26.4,30.13,NNW,338,12.7,12.7,52,0.00,OVC,,0.00,WeatherDisplay:10.37,2013-01-15 21:00:00,
2013-01-15 15:05:00,42.8,26.4,30.13,NNW,338,10.4,10.4,52,0.00,OVC,,0.00,WeatherDisplay:10.37,2013-01-15 21:05:00,
2013-01-15 15:10:00,42.6,27.6,30.13,West,270,12.1,12.1,55,0.00,OVC,,0.00,WeatherDisplay:10.37,2013-01-15 21:10:00,
2013-01-15 15:15:00,42.6,27.6,30.13,NW,315,9.2,9.2,55,0.00,OVC,,0.00,WeatherDisplay:10.37,2013-01-15 21:15:00,
2013-01-15 15:20:00,42.6,27.6,30.13,WNW,292,9.2,9.2,55,0.00,OVC,,0.00,WeatherDisplay:10.37,2013-01-15 21:20:00,
2013-01-15 15:25:00,42.6,27.6,30.13,NNW,338,11.5,11.5,55,0.00,OVC,,0.00,WeatherDisplay:10.37,2013-01-15 21:25:00,
2013-01-15 15:30:00,42.8,26.4,30.13,North,0,6.9,6.9,52,0.00,OVC,,0.00,WeatherDisplay:10.37,2013-01-15 21:30:00,
2013-01-15 15:36:00,42.4,27.4,30.13,NW,315,10.4,10.4,55,0.00,OVC,,0.00,WeatherDisplay:10.37,2013-01-15 21:36:00,
2013-01-15 15:41:00,42.8,26.4,30.13,NNW,338,5.8,5.8,52,0.00,OVC,,0.00,WeatherDisplay:10.37,2013-01-15 21:41:00,
2013-01-15 15:46:00,42.3,27.2,30.13,North,0,11.8,11.8,55,0.00,OVC,,0.00,WeatherDisplay:10.37,2013-01-15 21:46:00,
2013-01-15 15:51:00,42.3,27.2,30.13,WNW,292,9.2,9.2,55,0.00,OVC,,0.00,WeatherDisplay:10.37,2013-01-15 21:51:00,
2013-01-15 15:56:00,42.3,27.2,30.13,NNW,338,8.1,8.1,55,0.00,OVC,,0.00,WeatherDisplay:10.37,2013-01-15 21:56:00,
2013-01-15 16:01:00,42.4,27.4,30.13,North,0,6.9,6.9,55,0.00,OVC,,0.00,WeatherDisplay:10.37,2013-01-15 22:01:00,
2013-01-15 16:06:00,42.3,27.2,30.13,NW,315,6.9,6.9,55,0.00,OVC,,0.00,WeatherDisplay:10.37,2013-01-15 22:06:00,
2013-01-15 16:11:00,42.3,27.2,30.13,NNW,338,10.4,10.4,55,0.00,OVC,,0.00,WeatherDisplay:10.37,2013-01-15 22:11:00,
2013-01-15 16:16:00,42.3,27.2,30.16,NNW,338,8.1,8.1,55,0.00,OVC,,0.00,WeatherDisplay:10.37,2013-01-15 22:16:00,
2013-01-15 16:21:00,42.6,27.6,30.16,NNE,22,5.8,5.8,55,0.00,OVC,,0.00,WeatherDisplay:10.37,2013-01-15 22:21:00,
2013-01-15 16:26:00,42.4,27.4,30.16,NW,315,6.9,6.9,55,0.00,OVC,,0.00,WeatherDisplay:10.37,2013-01-15 22:26:00,
2013-01-15 16:32:00,42.3,27.2,30.16,NNW,338,11.2,11.2,55,0.00,OVC,,0.00,WeatherDisplay:10.37,2013-01-15 22:32:00,
2013-01-15 16:37:00,42.3,27.2,30.16,North,0,5.8,5.8,55,0.00,OVC,,0.00,WeatherDisplay:10.37,2013-01-15 22:37:00,
2013-01-15 16:42:00,42.3,27.2,30.16,WNW,292,5.8,5.8,55,0.00,OVC,,0.00,WeatherDisplay:10.37,2013-01-15 22:42:00,
2013-01-15 16:47:00,42.4,99.9,30.16,NW,315,8.1,8.1,122,0.00,OVC,,0.00,WeatherDisplay:10.37,2013-01-15 22:47:00,
2013-01-15 16:52:00,42.4,27.4,30.16,NNW,338,11.5,11.5,55,0.00,OVC,,0.00,WeatherDisplay:10.37,2013-01-15 22:52:00,
2013-01-15 16:57:00,42.3,27.2,30.16,North,0,5.8,5.8,55,0.00,OVC,,0.00,WeatherDisplay:10.37,2013-01-15 22:57:00,
2013-01-15 17:02:00,42.1,27.1,30.16,North,0,5.8,5.8,55,0.00,OVC,,0.00,WeatherDisplay:10.37,2013-01-15 23:02:00,
2013-01-15 17:07:00,42.1,27.1,30.16,North,0,4.6,4.6,55,0.00,OVC,,0.00,WeatherDisplay:10.37,2013-01-15 23:07:00,
2013-01-15 17:12:00,42.1,27.1,30.16,NNW,338,5.8,5.8,55,0.00,OVC,,0.00,WeatherDisplay:10.37,2013-01-15 23:12:00,
2013-01-15 17:17:00,42.1,27.1,30.16,NNW,338,5.8,5.8,55,0.00,OVC,,0.00,WeatherDisplay:10.37,2013-01-15 23:17:00,
2013-01-15 17:22:00,42.1,27.1,30.16,NNW,338,4.6,4.6,55,0.00,OVC,,0.00,WeatherDisplay:10.37,2013-01-15 23:22:00,
2013-01-15 17:27:00,42.1,27.1,30.16,NW,315,6.9,6.9,55,0.00,OVC,,0.00,WeatherDisplay:10.37,2013-01-15 23:27:00,
2013-01-15 17:32:00,41.9,26.9,30.16,NNW,338,9.2,9.2,55,0.00,OVC,,0.00,WeatherDisplay:10.37,2013-01-15 23:32:00,
2013-01-15 17:37:00,42.1,27.1,30.16,WNW,292,9.2,9.2,55,0.00,OVC,,0.00,WeatherDisplay:10.37,2013-01-15 23:37:00,
2013-01-15 17:42:00,42.1,27.1,30.16,NNW,338,15.0,15.0,55,0.00,OVC,,0.00,WeatherDisplay:10.37,2013-01-15 23:42:00,
2013-01-15 17:47:00,41.9,26.9,30.19,NW,315,11.5,11.5,55,0.00,OVC,,0.00,WeatherDisplay:10.37,2013-01-15 23:47:00,
2013-01-15 17:52:00,41.9,26.9,30.19,NNE,22,4.6,4.6,55,0.00,OVC,,0.00,WeatherDisplay:10.37,2013-01-15 23:52:00,
2013-01-15 17:57:00,41.9,26.9,30.19,WNW,292,5.8,5.8,55,0.00,OVC,,0.00,WeatherDisplay:10.37,2013-01-15 23:57:00,
2013-01-15 18:02:00,41.9,26.9,30.19,NW,315,9.2,9.2,55,0.00,OVC,,0.00,WeatherDisplay:10.37,2013-01-16 00:02:00,
2013-01-15 18:07:00,41.7,26.7,30.19,North,0,5.8,5.8,55,0.00,OVC,,0.00,WeatherDisplay:10.37,2013-01-16 00:07:00,
2013-01-15 18:12:00,41.7,29.6,30.19,NW,315,5.8,5.8,62,0.00,OVC,,0.00,WeatherDisplay:10.37,2013-01-16 00:12:00,
2013-01-15 18:17:00,41.7,29.6,30.16,NNW,338,5.8,5.8,62,0.00,OVC,,0.00,WeatherDisplay:10.37,2013-01-16 00:17:00,
2013-01-15 18:22:00,41.5,29.5,30.16,WNW,292,4.6,4.6,62,0.00,OVC,,0.00,WeatherDisplay:10.37,2013-01-16 00:22:00,
2013-01-15 18:27:00,41.5,29.5,30.16,NW,315,3.5,3.5,62,0.00,OVC,,0.00,WeatherDisplay:10.37,2013-01-16 00:27:00,
2013-01-15 18:32:00,41.5,29.5,30.19,NNW,338,4.6,4.6,62,0.00,OVC,,0.00,WeatherDisplay:10.37,2013-01-16 00:32:00,
2013-01-15 18:37:00,41.7,29.6,30.19,NNW,338,5.8,5.8,62,0.00,OVC,,0.00,WeatherDisplay:10.37,2013-01-16 00:37:00,
2013-01-15 18:42:00,41.7,29.6,30.19,North,0,11.5,11.5,62,0.00,OVC,,0.00,WeatherDisplay:10.37,2013-01-16 00:42:00,
2013-01-15 18:47:00,41.7,29.6,30.19,WNW,292,10.4,10.4,62,0.00,OVC,,0.00,WeatherDisplay:10.37,2013-01-16 00:47:00,
2013-01-15 18:52:00,41.5,29.5,30.19,NNW,338,9.2,9.2,62,0.00,OVC,,0.00,WeatherDisplay:10.37,2013-01-16 00:52:00,
2013-01-15 18:57:00,41.5,29.5,30.19,NW,315,5.8,5.8,62,0.00,OVC,,0.00,WeatherDisplay:10.37,2013-01-16 00:57:00,
2013-01-15 19:02:00,41.2,29.1,30.19,NW,315,5.8,5.8,62,0.00,OVC,,0.00,WeatherDisplay:10.37,2013-01-16 01:02:00,
2013-01-15 19:07:00,41.0,29.0,30.19,WSW,248,3.5,4.3,62,0.00,OVC,,0.00,WeatherDisplay:10.37,2013-01-16 01:07:00,
2013-01-15 19:12:00,40.8,28.8,30.19,North,0,10.4,10.4,62,0.00,OVC,,0.00,WeatherDisplay:10.37,2013-01-16 01:12:00,
2013-01-15 19:17:00,40.6,28.6,30.22,North,0,5.8,5.8,62,0.00,OVC,,0.00,WeatherDisplay:10.37,2013-01-16 01:17:00,
2013-01-15 19:22:00,40.5,28.5,30.22,NW,315,7.1,7.1,62,0.00,BKN,,0.00,WeatherDisplay:10.37,2013-01-16 01:22:00,
2013-01-15 19:27:00,40.6,28.6,30.22,NW,315,9.2,9.2,62,0.00,BKN,,0.00,WeatherDisplay:10.37,2013-01-16 01:27:00,
2013-01-15 19:32:00,40.6,28.6,30.22,NW,315,5.8,5.8,62,0.00,BKN,,0.00,WeatherDisplay:10.37,2013-01-16 01:32:00,
2013-01-15 19:37:00,40.5,28.5,30.22,NNW,338,5.8,5.8,62,0.00,BKN,,0.00,WeatherDisplay:10.37,2013-01-16 01:37:00,
2013-01-15 19:42:00,40.5,28.5,30.22,NW,315,8.1,8.1,62,0.00,BKN,,0.00,WeatherDisplay:10.37,2013-01-16 01:42:00,
2013-01-15 19:47:00,40.3,28.3,30.22,NW,315,4.6,4.6,62,0.00,BKN,,0.00,WeatherDisplay:10.37,2013-01-16 01:47:00,
2013-01-15 19:52:00,39.7,27.8,30.22,WNW,292,3.5,3.5,62,0.00,BKN,,0.00,WeatherDisplay:10.37,2013-01-16 01:52:00,
2013-01-15 19:57:00,39.6,27.6,30.22,WNW,292,4.6,4.6,62,0.00,BKN,,0.00,WeatherDisplay:10.37,2013-01-16 01:57:00,
2013-01-15 20:02:00,39.4,27.4,30.22,WNW,292,4.6,4.6,62,0.00,BKN,,0.00,WeatherDisplay:10.37,2013-01-16 02:02:00,
2013-01-15 20:07:00,39.2,27.3,30.22,West,270,3.5,3.5,62,0.00,BKN,,0.00,WeatherDisplay:10.37,2013-01-16 02:07:00,
2013-01-15 20:12:00,39.0,27.1,30.22,WNW,292,3.5,3.5,62,0.00,BKN,,0.00,WeatherDisplay:10.37,2013-01-16 02:12:00,
2013-01-15 20:17:00,38.8,26.9,30.22,WNW,292,4.6,4.6,62,0.00,BKN,,0.00,WeatherDisplay:10.37,2013-01-16 02:17:00,
2013-01-15 20:22:00,38.8,26.9,30.22,WNW,292,3.5,3.5,62,0.00,BKN,,0.00,WeatherDisplay:10.37,2013-01-16 02:22:00,
2013-01-15 20:27:00,38.7,26.8,30.22,WNW,292,2.3,3.1,62,0.00,BKN,,0.00,WeatherDisplay:10.37,2013-01-16 02:27:00,
2013-01-15 20:32:00,38.7,26.8,30.25,WNW,292,3.5,3.5,62,0.00,BKN,,0.00,WeatherDisplay:10.37,2013-01-16 02:32:00,
2013-01-15 20:37:00,38.5,26.6,30.25,NW,315,4.6,4.6,62,0.00,BKN,,0.00,WeatherDisplay:10.37,2013-01-16 02:37:00,
2013-01-15 20:42:00,38.5,26.6,30.25,WNW,292,2.3,2.3,62,0.00,CLR,,0.00,WeatherDisplay:10.37,2013-01-16 02:42:00,
2013-01-15 20:47:00,38.3,26.4,30.25,WNW,292,4.6,4.6,62,0.00,CLR,,0.00,WeatherDisplay:10.37,2013-01-16 02:47:00,
2013-01-15 20:52:00,38.1,26.2,30.25,WNW,292,3.5,3.5,62,0.00,CLR,,0.00,WeatherDisplay:10.37,2013-01-16 02:52:00,
2013-01-15 20:57:00,38.1,26.2,30.25,WNW,292,2.4,2.4,62,0.00,CLR,,0.00,WeatherDisplay:10.37,2013-01-16 02:57:00,
2013-01-15 21:02:00,38.1,26.2,30.25,West,270,3.5,4.0,62,0.00,CLR,,0.00,WeatherDisplay:10.37,2013-01-16 03:02:00,
2013-01-15 21:07:00,38.1,26.2,30.25,WNW,292,4.6,4.6,62,0.00,CLR,,0.00,WeatherDisplay:10.37,2013-01-16 03:07:00,
2013-01-15 21:12:00,37.9,26.1,30.25,NW,315,6.9,6.9,62,0.00,CLR,,0.00,WeatherDisplay:10.37,2013-01-16 03:12:00,
2013-01-15 21:17:00,38.1,26.2,30.25,ESE,112,5.8,5.8,62,0.00,CLR,,0.00,WeatherDisplay:10.37,2013-01-16 03:17:00,
2013-01-15 21:22:00,37.9,26.1,30.25,WNW,292,3.5,3.5,62,0.00,CLR,,0.00,WeatherDisplay:10.37,2013-01-16 03:22:00,
2013-01-15 21:27:00,37.9,26.1,30.25,NW,315,2.3,2.3,62,0.00,CLR,,0.00,WeatherDisplay:10.37,2013-01-16 03:27:00,
2013-01-15 21:32:00,37.8,25.9,30.25,WNW,292,2.3,2.3,62,0.00,CLR,,0.00,WeatherDisplay:10.37,2013-01-16 03:32:00,
2013-01-15 21:37:00,37.6,25.7,30.25,WNW,292,3.5,3.5,62,0.00,CLR,,0.00,WeatherDisplay:10.37,2013-01-16 03:37:00,
2013-01-15 21:42:00,37.4,25.6,30.25,West,270,3.5,3.5,62,0.00,CLR,,0.00,WeatherDisplay:10.37,2013-01-16 03:42:00,
2013-01-15 21:47:00,37.4,25.6,30.25,West,270,2.3,2.3,62,0.00,CLR,,0.00,WeatherDisplay:10.37,2013-01-16 03:47:00,
2013-01-15 21:52:00,37.4,25.6,30.25,West,270,2.3,2.3,62,0.00,CLR,,0.00,WeatherDisplay:10.37,2013-01-16 03:52:00,
2013-01-15 21:57:00,37.0,26.4,30.25,West,270,3.5,3.5,65,0.00,CLR,,0.00,WeatherDisplay:10.37,2013-01-16 03:57:00,
2013-01-15 22:02:00,37.0,26.4,30.25,West,270,3.5,3.5,65,0.00,CLR,,0.00,WeatherDisplay:10.37,2013-01-16 04:02:00,
2013-01-15 22:07:00,36.7,26.0,30.25,West,270,2.3,2.3,65,0.00,CLR,,0.00,WeatherDisplay:10.37,2013-01-16 04:07:00,
2013-01-15 22:12:00,36.7,26.0,30.25,West,270,3.5,3.5,65,0.00,CLR,,0.00,WeatherDisplay:10.37,2013-01-16 04:12:00,
2013-01-15 22:17:00,36.5,25.8,30.25,West,270,2.3,2.4,65,0.00,CLR,,0.00,WeatherDisplay:10.37,2013-01-16 04:17:00,
2013-01-15 22:22:00,36.5,25.8,30.25,WNW,292,2.3,2.9,65,0.00,CLR,,0.00,WeatherDisplay:10.37,2013-01-16 04:22:00,
2013-01-15 22:27:00,36.5,25.8,30.25,West,270,4.6,4.6,65,0.00,CLR,,0.00,WeatherDisplay:10.37,2013-01-16 04:27:00,
2013-01-15 22:32:00,36.3,25.7,30.25,West,270,2.3,2.6,65,0.00,CLR,,0.00,WeatherDisplay:10.37,2013-01-16 04:32:00,
2013-01-15 22:37:00,36.3,25.7,30.25,West,270,3.5,3.5,65,0.00,CLR,,0.00,WeatherDisplay:10.37,2013-01-16 04:37:00,
2013-01-15 22:42:00,36.3,22.1,30.28,West,270,2.3,2.4,56,0.00,CLR,,0.00,WeatherDisplay:10.37,2013-01-16 04:42:00,
2013-01-15 22:47:00,36.3,25.7,30.28,West,270,3.5,3.5,65,0.00,CLR,,0.00,WeatherDisplay:10.37,2013-01-16 04:47:00,
2013-01-15 22:52:00,36.1,25.5,30.28,West,270,3.5,3.5,65,0.00,CLR,,0.00,WeatherDisplay:10.37,2013-01-16 04:52:00,
2013-01-15 22:57:00,36.1,25.5,30.28,West,270,3.5,3.5,65,0.00,CLR,,0.00,WeatherDisplay:10.37,2013-01-16 04:57:00,
2013-01-15 23:01:00,36.1,25.5,30.28,WSW,248,3.5,3.5,65,0.00,CLR,,0.00,WeatherDisplay:10.37,2013-01-16 05:01:00,
2013-01-15 23:02:00,36.1,25.5,30.28,WNW,292,3.5,3.5,65,0.00,CLR,,0.00,WeatherDisplay:10.37,2013-01-16 05:02:00,
2013-01-15 23:03:00,36.1,25.5,30.28,West,270,2.3,2.3,65,0.00,CLR,,0.00,WeatherDisplay:10.37,2013-01-16 05:03:00,
2013-01-15 23:08:00,36.0,25.3,30.28,West,270,3.5,3.5,65,0.00,CLR,,0.00,WeatherDisplay:10.37,2013-01-16 05:08:00,
2013-01-15 23:13:00,36.1,25.5,30.28,West,270,4.6,4.6,65,0.00,CLR,,0.00,WeatherDisplay:10.37,2013-01-16 05:13:00,
2013-01-15 23:18:00,36.1,25.5,30.28,WSW,248,3.5,3.5,65,0.00,CLR,,0.00,WeatherDisplay:10.37,2013-01-16 05:18:00,
2013-01-15 23:23:00,36.1,25.5,30.28,West,270,2.3,2.6,65,0.00,CLR,,0.00,WeatherDisplay:10.37,2013-01-16 05:23:00,
2013-01-15 23:28:00,36.0,25.3,30.28,West,270,3.5,3.5,65,0.00,CLR,,0.00,WeatherDisplay:10.37,2013-01-16 05:28:00,
2013-01-15 23:33:00,36.1,25.5,30.28,WNW,292,3.5,3.5,65,0.00,CLR,,0.00,WeatherDisplay:10.37,2013-01-16 05:33:00,
2013-01-15 23:38:00,36.1,25.5,30.28,West,270,3.5,3.5,65,0.00,CLR,,0.00,WeatherDisplay:10.37,2013-01-16 05:38:00,
2013-01-15 23:43:00,36.0,25.3,30.25,WSW,248,3.5,3.5,65,0.00,CLR,,0.00,WeatherDisplay:10.37,2013-01-16 05:43:00,
2013-01-15 23:48:00,36.0,25.3,30.25,NW,315,3.5,3.5,65,0.00,CLR,,0.00,WeatherDisplay:10.37,2013-01-16 05:48:00,
2013-01-15 23:53:00,35.8,21.6,30.25,WNW,292,4.6,4.6,56,0.00,CLR,,0.00,WeatherDisplay:10.37,2013-01-16 05:53:00,
2013-01-15 23:58:00,35.8,21.6,30.28,West,270,2.3,2.3,56,0.00,CLR,,0.00,WeatherDisplay:10.37,2013-01-16 05:58:00,